<?xml version="1.0" encoding="utf-8"?>
<gpx xmlns:xsi="http://www.w3.org/2001/XMLSchema-instance" xmlns:xsd="http://www.w3.org/2001/XMLSchema" version="1.1" creator="Shapelink.com" xmlns="http://www.topografix.com/GPX/1/1" xmlns:gpxtpx="http://www.garmin.com/xmlschemas/TrackPointExtension/v1">
  <metadata>
    <name>Cycling 13.93 km, 2020-06-10</name>
    <desc></desc>
    <author><name>Marian Moron</name></author> 
    <time>2020-06-10T17:55:41Z</time>
  </metadata>
  <trk>
    <name>Cycling 13.93 km, 2020-06-10</name>
    <trkseg>
      <trkpt lat="51.228557524051" lon="4.44917538425">
        <ele>0</ele>
        <time>2020-06-10T17:55:41Z</time>
      </trkpt>
      <trkpt lat="51.228818117322" lon="4.448797276741">
        <ele>0</ele>
        <time>2020-06-10T17:56:00Z</time>
      </trkpt>
      <trkpt lat="51.228811327983" lon="4.44886022481">
        <ele>0</ele>
        <time>2020-06-10T17:56:04Z</time>
      </trkpt>
      <trkpt lat="51.228763551153" lon="4.448905906165">
        <ele>0</ele>
        <time>2020-06-10T17:56:08Z</time>
      </trkpt>
      <trkpt lat="51.228732873399" lon="4.448869277262">
        <ele>0</ele>
        <time>2020-06-10T17:56:10Z</time>
      </trkpt>
      <trkpt lat="51.22875206795" lon="4.448787469918">
        <ele>0</ele>
        <time>2020-06-10T17:56:13Z</time>
      </trkpt>
      <trkpt lat="51.228918281027" lon="4.448502485318">
        <ele>0</ele>
        <time>2020-06-10T17:56:32Z</time>
      </trkpt>
      <trkpt lat="51.228587195977" lon="4.447769320525">
        <ele>0</ele>
        <time>2020-06-10T17:56:53Z</time>
      </trkpt>
      <trkpt lat="51.228274215831" lon="4.447197172031">
        <ele>0</ele>
        <time>2020-06-10T17:57:13Z</time>
      </trkpt>
      <trkpt lat="51.227846319836" lon="4.447739983875">
        <ele>0</ele>
        <time>2020-06-10T17:57:35Z</time>
      </trkpt>
      <trkpt lat="51.227754538031" lon="4.447922541657">
        <ele>0</ele>
        <time>2020-06-10T17:57:46Z</time>
      </trkpt>
      <trkpt lat="51.227323959828" lon="4.448505921897">
        <ele>0</ele>
        <time>2020-06-10T17:58:04Z</time>
      </trkpt>
      <trkpt lat="51.227062779824" lon="4.449265657313">
        <ele>0</ele>
        <time>2020-06-10T17:58:21Z</time>
      </trkpt>
      <trkpt lat="51.22696672325" lon="4.449318044188">
        <ele>0</ele>
        <time>2020-06-10T17:58:26Z</time>
      </trkpt>
      <trkpt lat="51.226522817826" lon="4.449784664561">
        <ele>0</ele>
        <time>2020-06-10T17:58:49Z</time>
      </trkpt>
      <trkpt lat="51.226117888237" lon="4.450369050629">
        <ele>0</ele>
        <time>2020-06-10T17:59:06Z</time>
      </trkpt>
      <trkpt lat="51.225703151825" lon="4.450950083937">
        <ele>0</ele>
        <time>2020-06-10T17:59:24Z</time>
      </trkpt>
      <trkpt lat="51.22536829492" lon="4.451637064461">
        <ele>0</ele>
        <time>2020-06-10T17:59:41Z</time>
      </trkpt>
      <trkpt lat="51.225144162914" lon="4.452438960834">
        <ele>0</ele>
        <time>2020-06-10T18:00:00Z</time>
      </trkpt>
      <trkpt lat="51.225039892078" lon="4.453285700372">
        <ele>0</ele>
        <time>2020-06-10T18:00:19Z</time>
      </trkpt>
      <trkpt lat="51.225019440242" lon="4.454172421573">
        <ele>0</ele>
        <time>2020-06-10T18:00:39Z</time>
      </trkpt>
      <trkpt lat="51.225025726667" lon="4.454370653508">
        <ele>0</ele>
        <time>2020-06-10T18:00:45Z</time>
      </trkpt>
      <trkpt lat="51.225013908188" lon="4.454403594375">
        <ele>0</ele>
        <time>2020-06-10T18:01:07Z</time>
      </trkpt>
      <trkpt lat="51.22500619684" lon="4.454440139459">
        <ele>0</ele>
        <time>2020-06-10T18:01:09Z</time>
      </trkpt>
      <trkpt lat="51.224931346473" lon="4.455318143484">
        <ele>0</ele>
        <time>2020-06-10T18:01:31Z</time>
      </trkpt>
      <trkpt lat="51.224771922735" lon="4.456157842226">
        <ele>0</ele>
        <time>2020-06-10T18:01:49Z</time>
      </trkpt>
      <trkpt lat="51.224549215652" lon="4.456941466057">
        <ele>0</ele>
        <time>2020-06-10T18:02:10Z</time>
      </trkpt>
      <trkpt lat="51.224099694355" lon="4.457418647624">
        <ele>1.8</ele>
        <time>2020-06-10T18:02:30Z</time>
      </trkpt>
      <trkpt lat="51.223984527049" lon="4.457527193229">
        <ele>5.6</ele>
        <time>2020-06-10T18:02:40Z</time>
      </trkpt>
      <trkpt lat="51.223532994096" lon="4.458005799719">
        <ele>5.6</ele>
        <time>2020-06-10T18:03:01Z</time>
      </trkpt>
      <trkpt lat="51.223086657921" lon="4.458489602987">
        <ele>1</ele>
        <time>2020-06-10T18:03:18Z</time>
      </trkpt>
      <trkpt lat="51.222972328805" lon="4.45855556854">
        <ele>0.8</ele>
        <time>2020-06-10T18:03:23Z</time>
      </trkpt>
      <trkpt lat="51.222938633567" lon="4.458512904669">
        <ele>0.6</ele>
        <time>2020-06-10T18:03:25Z</time>
      </trkpt>
      <trkpt lat="51.222901585569" lon="4.458431432601">
        <ele>0</ele>
        <time>2020-06-10T18:03:29Z</time>
      </trkpt>
      <trkpt lat="51.222869734349" lon="4.458446184745">
        <ele>0</ele>
        <time>2020-06-10T18:03:31Z</time>
      </trkpt>
      <trkpt lat="51.222531692322" lon="4.458725553472">
        <ele>0</ele>
        <time>2020-06-10T18:03:47Z</time>
      </trkpt>
      <trkpt lat="51.222472935203" lon="4.458541486948">
        <ele>0</ele>
        <time>2020-06-10T18:04:07Z</time>
      </trkpt>
      <trkpt lat="51.222524819164" lon="4.458664030326">
        <ele>4</ele>
        <time>2020-06-10T18:06:10Z</time>
      </trkpt>
      <trkpt lat="51.222552730891" lon="4.458677609004">
        <ele>1.6</ele>
        <time>2020-06-10T18:06:11Z</time>
      </trkpt>
      <trkpt lat="51.223023123119" lon="4.458216353047">
        <ele>0</ele>
        <time>2020-06-10T18:06:33Z</time>
      </trkpt>
      <trkpt lat="51.223534670476" lon="4.457847381809">
        <ele>1.6</ele>
        <time>2020-06-10T18:06:50Z</time>
      </trkpt>
      <trkpt lat="51.223970277819" lon="4.457297110074">
        <ele>8.2</ele>
        <time>2020-06-10T18:07:09Z</time>
      </trkpt>
      <trkpt lat="51.224389456638" lon="4.45667718475">
        <ele>4</ele>
        <time>2020-06-10T18:07:27Z</time>
      </trkpt>
      <trkpt lat="51.224612918092" lon="4.45584570027">
        <ele>1.8</ele>
        <time>2020-06-10T18:07:42Z</time>
      </trkpt>
      <trkpt lat="51.224760690989" lon="4.454975742869">
        <ele>2.8</ele>
        <time>2020-06-10T18:07:58Z</time>
      </trkpt>
      <trkpt lat="51.224768234699" lon="4.454727387172">
        <ele>1.2</ele>
        <time>2020-06-10T18:08:04Z</time>
      </trkpt>
      <trkpt lat="51.224744262465" lon="4.454621859051">
        <ele>0.2</ele>
        <time>2020-06-10T18:08:08Z</time>
      </trkpt>
      <trkpt lat="51.224766725957" lon="4.454569472176">
        <ele>0.8</ele>
        <time>2020-06-10T18:08:10Z</time>
      </trkpt>
      <trkpt lat="51.224799499186" lon="4.454519264595">
        <ele>0.6</ele>
        <time>2020-06-10T18:08:13Z</time>
      </trkpt>
      <trkpt lat="51.224794805322" lon="4.45446436315">
        <ele>1.4</ele>
        <time>2020-06-10T18:08:15Z</time>
      </trkpt>
      <trkpt lat="51.224268338183" lon="4.454388004041">
        <ele>7.2</ele>
        <time>2020-06-10T18:08:34Z</time>
      </trkpt>
      <trkpt lat="51.224287951829" lon="4.454426476962">
        <ele>8.8</ele>
        <time>2020-06-10T18:08:43Z</time>
      </trkpt>
      <trkpt lat="51.224572349696" lon="4.454503338985">
        <ele>14.4</ele>
        <time>2020-06-10T18:09:06Z</time>
      </trkpt>
      <trkpt lat="51.224554999163" lon="4.454592773858">
        <ele>23.6</ele>
        <time>2020-06-10T18:09:53Z</time>
      </trkpt>
      <trkpt lat="51.224556172629" lon="4.454595036971">
        <ele>24.2</ele>
        <time>2020-06-10T18:09:54Z</time>
      </trkpt>
      <trkpt lat="51.224399431099" lon="4.454511217971">
        <ele>13</ele>
        <time>2020-06-10T18:16:53Z</time>
      </trkpt>
      <trkpt lat="51.223834826315" lon="4.454477690371">
        <ele>10.6</ele>
        <time>2020-06-10T18:17:14Z</time>
      </trkpt>
      <trkpt lat="51.223274663938" lon="4.454386076204">
        <ele>8.8</ele>
        <time>2020-06-10T18:17:32Z</time>
      </trkpt>
      <trkpt lat="51.222719782158" lon="4.454289516716">
        <ele>3.4</ele>
        <time>2020-06-10T18:17:48Z</time>
      </trkpt>
      <trkpt lat="51.222171773536" lon="4.454247858673">
        <ele>0.2</ele>
        <time>2020-06-10T18:18:04Z</time>
      </trkpt>
      <trkpt lat="51.221624267828" lon="4.454207122639">
        <ele>0</ele>
        <time>2020-06-10T18:18:21Z</time>
      </trkpt>
      <trkpt lat="51.221057148474" lon="4.454180552016">
        <ele>0</ele>
        <time>2020-06-10T18:18:39Z</time>
      </trkpt>
      <trkpt lat="51.220551636085" lon="4.454469308471">
        <ele>0</ele>
        <time>2020-06-10T18:19:01Z</time>
      </trkpt>
      <trkpt lat="51.220155758948" lon="4.455074649289">
        <ele>1.6</ele>
        <time>2020-06-10T18:19:19Z</time>
      </trkpt>
      <trkpt lat="51.219933973874" lon="4.455271037206">
        <ele>7.6</ele>
        <time>2020-06-10T18:19:37Z</time>
      </trkpt>
      <trkpt lat="51.219891729098" lon="4.455306660281">
        <ele>12.8</ele>
        <time>2020-06-10T18:19:44Z</time>
      </trkpt>
      <trkpt lat="51.219855770747" lon="4.455311354145">
        <ele>13.2</ele>
        <time>2020-06-10T18:19:51Z</time>
      </trkpt>
      <trkpt lat="51.219793241773" lon="4.455343792098">
        <ele>9</ele>
        <time>2020-06-10T18:20:40Z</time>
      </trkpt>
      <trkpt lat="51.219788296452" lon="4.45532769885">
        <ele>9</ele>
        <time>2020-06-10T18:20:41Z</time>
      </trkpt>
      <trkpt lat="51.219705902375" lon="4.454444917142">
        <ele>19.4</ele>
        <time>2020-06-10T18:21:05Z</time>
      </trkpt>
      <trkpt lat="51.219366519244" lon="4.453878719797">
        <ele>8.2</ele>
        <time>2020-06-10T18:21:17Z</time>
      </trkpt>
      <trkpt lat="51.218889756772" lon="4.45431600352">
        <ele>2.6</ele>
        <time>2020-06-10T18:21:32Z</time>
      </trkpt>
      <trkpt lat="51.218421040924" lon="4.454754628347">
        <ele>0</ele>
        <time>2020-06-10T18:21:48Z</time>
      </trkpt>
      <trkpt lat="51.218085848743" lon="4.455399112638">
        <ele>2.2</ele>
        <time>2020-06-10T18:22:06Z</time>
      </trkpt>
      <trkpt lat="51.21808023287" lon="4.456292371721">
        <ele>0</ele>
        <time>2020-06-10T18:22:23Z</time>
      </trkpt>
      <trkpt lat="51.218023822683" lon="4.457156210335">
        <ele>4</ele>
        <time>2020-06-10T18:22:40Z</time>
      </trkpt>
      <trkpt lat="51.217995408042" lon="4.458056342576">
        <ele>3.8</ele>
        <time>2020-06-10T18:22:58Z</time>
      </trkpt>
      <trkpt lat="51.217947882669" lon="4.458919594457">
        <ele>0</ele>
        <time>2020-06-10T18:23:12Z</time>
      </trkpt>
      <trkpt lat="51.217909996481" lon="4.459795670645">
        <ele>0</ele>
        <time>2020-06-10T18:23:26Z</time>
      </trkpt>
      <trkpt lat="51.217872529388" lon="4.460701167302">
        <ele>2.2</ele>
        <time>2020-06-10T18:23:40Z</time>
      </trkpt>
      <trkpt lat="51.217866745877" lon="4.46118497057">
        <ele>3.4</ele>
        <time>2020-06-10T18:23:52Z</time>
      </trkpt>
      <trkpt lat="51.217814694278" lon="4.462041097836">
        <ele>0.2</ele>
        <time>2020-06-10T18:24:10Z</time>
      </trkpt>
      <trkpt lat="51.21777680809" lon="4.462912983074">
        <ele>0</ele>
        <time>2020-06-10T18:24:28Z</time>
      </trkpt>
      <trkpt lat="51.217751997666" lon="4.463790484185">
        <ele>0</ele>
        <time>2020-06-10T18:24:47Z</time>
      </trkpt>
      <trkpt lat="51.217718302428" lon="4.464671086599">
        <ele>0</ele>
        <time>2020-06-10T18:25:02Z</time>
      </trkpt>
      <trkpt lat="51.217647643011" lon="4.465578846369">
        <ele>0</ele>
        <time>2020-06-10T18:25:15Z</time>
      </trkpt>
      <trkpt lat="51.217618641637" lon="4.466459448783">
        <ele>0</ele>
        <time>2020-06-10T18:25:28Z</time>
      </trkpt>
      <trkpt lat="51.21760162638" lon="4.467343739233">
        <ele>0</ele>
        <time>2020-06-10T18:25:43Z</time>
      </trkpt>
      <trkpt lat="51.21755384955" lon="4.468246050768">
        <ele>0</ele>
        <time>2020-06-10T18:25:59Z</time>
      </trkpt>
      <trkpt lat="51.21748008883" lon="4.468806967516">
        <ele>1.8</ele>
        <time>2020-06-10T18:26:07Z</time>
      </trkpt>
      <trkpt lat="51.217424097738" lon="4.468905622479">
        <ele>2</ele>
        <time>2020-06-10T18:26:09Z</time>
      </trkpt>
      <trkpt lat="51.216955298071" lon="4.469368890092">
        <ele>2.2</ele>
        <time>2020-06-10T18:26:25Z</time>
      </trkpt>
      <trkpt lat="51.216407457087" lon="4.469175268202">
        <ele>9.6</ele>
        <time>2020-06-10T18:26:42Z</time>
      </trkpt>
      <trkpt lat="51.216011244674" lon="4.468975527525">
        <ele>16.4</ele>
        <time>2020-06-10T18:27:05Z</time>
      </trkpt>
      <trkpt lat="51.215775461827" lon="4.46852416221">
        <ele>8</ele>
        <time>2020-06-10T18:27:20Z</time>
      </trkpt>
      <trkpt lat="51.215227788481" lon="4.468263149844">
        <ele>1.4</ele>
        <time>2020-06-10T18:27:36Z</time>
      </trkpt>
      <trkpt lat="51.21475513314" lon="4.468388794525">
        <ele>4.8</ele>
        <time>2020-06-10T18:27:51Z</time>
      </trkpt>
      <trkpt lat="51.214463107744" lon="4.469101256025">
        <ele>4.6</ele>
        <time>2020-06-10T18:28:04Z</time>
      </trkpt>
      <trkpt lat="51.214156833118" lon="4.469819836312">
        <ele>0</ele>
        <time>2020-06-10T18:28:20Z</time>
      </trkpt>
      <trkpt lat="51.214000175407" lon="4.470645369643">
        <ele>1.2</ele>
        <time>2020-06-10T18:28:36Z</time>
      </trkpt>
      <trkpt lat="51.213755004832" lon="4.471346599397">
        <ele>0</ele>
        <time>2020-06-10T18:28:54Z</time>
      </trkpt>
      <trkpt lat="51.213353092727" lon="4.471485403661">
        <ele>0</ele>
        <time>2020-06-10T18:29:10Z</time>
      </trkpt>
      <trkpt lat="51.213430290026" lon="4.472319067435">
        <ele>0</ele>
        <time>2020-06-10T18:29:28Z</time>
      </trkpt>
      <trkpt lat="51.213556689078" lon="4.473152312114">
        <ele>0</ele>
        <time>2020-06-10T18:29:44Z</time>
      </trkpt>
      <trkpt lat="51.213342699171" lon="4.473777518035">
        <ele>1.6</ele>
        <time>2020-06-10T18:30:01Z</time>
      </trkpt>
      <trkpt lat="51.213296514902" lon="4.474492494105">
        <ele>1</ele>
        <time>2020-06-10T18:30:19Z</time>
      </trkpt>
      <trkpt lat="51.213430960578" lon="4.475376533098">
        <ele>0</ele>
        <time>2020-06-10T18:30:34Z</time>
      </trkpt>
      <trkpt lat="51.213585690452" lon="4.476260404453">
        <ele>0</ele>
        <time>2020-06-10T18:30:49Z</time>
      </trkpt>
      <trkpt lat="51.213771684813" lon="4.477112843683">
        <ele>0</ele>
        <time>2020-06-10T18:31:04Z</time>
      </trkpt>
      <trkpt lat="51.214128669934" lon="4.47774928135">
        <ele>2</ele>
        <time>2020-06-10T18:31:19Z</time>
      </trkpt>
      <trkpt lat="51.214552374979" lon="4.478279771801">
        <ele>4.8</ele>
        <time>2020-06-10T18:31:37Z</time>
      </trkpt>
      <trkpt lat="51.215025700872" lon="4.478746056898">
        <ele>4.8</ele>
        <time>2020-06-10T18:31:52Z</time>
      </trkpt>
      <trkpt lat="51.21558745581" lon="4.478883184782">
        <ele>2.8</ele>
        <time>2020-06-10T18:32:08Z</time>
      </trkpt>
      <trkpt lat="51.216124148867" lon="4.47939967746">
        <ele>3.4</ele>
        <time>2020-06-10T18:32:27Z</time>
      </trkpt>
      <trkpt lat="51.2161498813" lon="4.480248093378">
        <ele>3</ele>
        <time>2020-06-10T18:32:43Z</time>
      </trkpt>
      <trkpt lat="51.216670984023" lon="4.480337947346">
        <ele>3</ele>
        <time>2020-06-10T18:32:58Z</time>
      </trkpt>
      <trkpt lat="51.217026208945" lon="4.4806787554">
        <ele>3.2</ele>
        <time>2020-06-10T18:33:20Z</time>
      </trkpt>
      <trkpt lat="51.216977845382" lon="4.481574026139">
        <ele>4.4</ele>
        <time>2020-06-10T18:33:36Z</time>
      </trkpt>
      <trkpt lat="51.217009780421" lon="4.481833110668">
        <ele>4.6</ele>
        <time>2020-06-10T18:33:43Z</time>
      </trkpt>
      <trkpt lat="51.217533649171" lon="4.481604368617">
        <ele>4.8</ele>
        <time>2020-06-10T18:34:02Z</time>
      </trkpt>
      <trkpt lat="51.218073275893" lon="4.481334555256">
        <ele>4.8</ele>
        <time>2020-06-10T18:34:21Z</time>
      </trkpt>
      <trkpt lat="51.218588595105" lon="4.481078991125">
        <ele>5.6</ele>
        <time>2020-06-10T18:34:37Z</time>
      </trkpt>
      <trkpt lat="51.219111877122" lon="4.480772548861">
        <ele>4.8</ele>
        <time>2020-06-10T18:34:54Z</time>
      </trkpt>
      <trkpt lat="51.219279012208" lon="4.48061756753">
        <ele>4.2</ele>
        <time>2020-06-10T18:35:01Z</time>
      </trkpt>
      <trkpt lat="51.219324693563" lon="4.480603485938">
        <ele>3.4</ele>
        <time>2020-06-10T18:35:03Z</time>
      </trkpt>
      <trkpt lat="51.219274150706" lon="4.479766553223">
        <ele>3.6</ele>
        <time>2020-06-10T18:35:22Z</time>
      </trkpt>
      <trkpt lat="51.219112715312" lon="4.478941355168">
        <ele>5.4</ele>
        <time>2020-06-10T18:35:36Z</time>
      </trkpt>
      <trkpt lat="51.218930241349" lon="4.478125125746">
        <ele>5.2</ele>
        <time>2020-06-10T18:35:50Z</time>
      </trkpt>
      <trkpt lat="51.218764698824" lon="4.477280146407">
        <ele>4.8</ele>
        <time>2020-06-10T18:36:05Z</time>
      </trkpt>
      <trkpt lat="51.218758663856" lon="4.476408931721">
        <ele>3.8</ele>
        <time>2020-06-10T18:36:21Z</time>
      </trkpt>
      <trkpt lat="51.21884382396" lon="4.475508631842">
        <ele>5</ele>
        <time>2020-06-10T18:36:36Z</time>
      </trkpt>
      <trkpt lat="51.218934432299" lon="4.474607242316">
        <ele>4.6</ele>
        <time>2020-06-10T18:36:52Z</time>
      </trkpt>
      <trkpt lat="51.219061585722" lon="4.473769219954">
        <ele>5.6</ele>
        <time>2020-06-10T18:37:08Z</time>
      </trkpt>
      <trkpt lat="51.21918496729" lon="4.472899262553">
        <ele>2.4</ele>
        <time>2020-06-10T18:37:25Z</time>
      </trkpt>
      <trkpt lat="51.219353024385" lon="4.472051098092">
        <ele>2</ele>
        <time>2020-06-10T18:37:43Z</time>
      </trkpt>
      <trkpt lat="51.21946576094" lon="4.471180973053">
        <ele>0</ele>
        <time>2020-06-10T18:38:04Z</time>
      </trkpt>
      <trkpt lat="51.219593836372" lon="4.470317637353">
        <ele>0</ele>
        <time>2020-06-10T18:38:19Z</time>
      </trkpt>
      <trkpt lat="51.219804138243" lon="4.469500821198">
        <ele>0</ele>
        <time>2020-06-10T18:38:37Z</time>
      </trkpt>
      <trkpt lat="51.219966914741" lon="4.468685681423">
        <ele>3.4</ele>
        <time>2020-06-10T18:39:03Z</time>
      </trkpt>
      <trkpt lat="51.219955850633" lon="4.468644526294">
        <ele>6.2</ele>
        <time>2020-06-10T18:39:13Z</time>
      </trkpt>
      <trkpt lat="51.219979403772" lon="4.468561713122">
        <ele>19</ele>
        <time>2020-06-10T18:40:22Z</time>
      </trkpt>
      <trkpt lat="51.220050649922" lon="4.468594989265">
        <ele>19</ele>
        <time>2020-06-10T18:40:26Z</time>
      </trkpt>
      <trkpt lat="51.220574267215" lon="4.468707139087">
        <ele>15.8</ele>
        <time>2020-06-10T18:40:45Z</time>
      </trkpt>
      <trkpt lat="51.221143062949" lon="4.468694566237">
        <ele>4.6</ele>
        <time>2020-06-10T18:41:01Z</time>
      </trkpt>
      <trkpt lat="51.221167873373" lon="4.468726249819">
        <ele>3.4</ele>
        <time>2020-06-10T18:41:02Z</time>
      </trkpt>
      <trkpt lat="51.221223193913" lon="4.468769919518">
        <ele>2.8</ele>
        <time>2020-06-10T18:41:04Z</time>
      </trkpt>
      <trkpt lat="51.221760389884" lon="4.46889883314">
        <ele>1.2</ele>
        <time>2020-06-10T18:41:20Z</time>
      </trkpt>
      <trkpt lat="51.222336645509" lon="4.468914004379">
        <ele>5</ele>
        <time>2020-06-10T18:41:41Z</time>
      </trkpt>
      <trkpt lat="51.222886246692" lon="4.468887852851">
        <ele>0</ele>
        <time>2020-06-10T18:41:58Z</time>
      </trkpt>
      <trkpt lat="51.223423442663" lon="4.468993129515">
        <ele>4</ele>
        <time>2020-06-10T18:42:15Z</time>
      </trkpt>
      <trkpt lat="51.223961895919" lon="4.468926241953">
        <ele>0</ele>
        <time>2020-06-10T18:42:32Z</time>
      </trkpt>
      <trkpt lat="51.223986371067" lon="4.468936132595">
        <ele>0</ele>
        <time>2020-06-10T18:42:33Z</time>
      </trkpt>
      <trkpt lat="51.224521220106" lon="4.468997991017">
        <ele>0</ele>
        <time>2020-06-10T18:42:52Z</time>
      </trkpt>
      <trkpt lat="51.224874265734" lon="4.469026908572">
        <ele>0</ele>
        <time>2020-06-10T18:43:04Z</time>
      </trkpt>
      <trkpt lat="51.224909134438" lon="4.46990717571">
        <ele>4.2</ele>
        <time>2020-06-10T18:43:21Z</time>
      </trkpt>
      <trkpt lat="51.224800085919" lon="4.470735475068">
        <ele>10</ele>
        <time>2020-06-10T18:43:37Z</time>
      </trkpt>
      <trkpt lat="51.22487627739" lon="4.471586992289">
        <ele>7.2</ele>
        <time>2020-06-10T18:43:53Z</time>
      </trkpt>
      <trkpt lat="51.225011728894" lon="4.4723387649">
        <ele>14.6</ele>
        <time>2020-06-10T18:44:12Z</time>
      </trkpt>
      <trkpt lat="51.225572561823" lon="4.472337004701">
        <ele>15.6</ele>
        <time>2020-06-10T18:44:28Z</time>
      </trkpt>
      <trkpt lat="51.225781271133" lon="4.472820891788">
        <ele>12</ele>
        <time>2020-06-10T18:44:39Z</time>
      </trkpt>
      <trkpt lat="51.225710024983" lon="4.472933460705">
        <ele>10.2</ele>
        <time>2020-06-10T18:44:43Z</time>
      </trkpt>
      <trkpt lat="51.22571614377" lon="4.472995654403">
        <ele>9.8</ele>
        <time>2020-06-10T18:44:45Z</time>
      </trkpt>
      <trkpt lat="51.225816810389" lon="4.473077629385">
        <ele>11.6</ele>
        <time>2020-06-10T18:44:49Z</time>
      </trkpt>
      <trkpt lat="51.226242191814" lon="4.473494545091">
        <ele>12.6</ele>
        <time>2020-06-10T18:45:04Z</time>
      </trkpt>
      <trkpt lat="51.22661719802" lon="4.47414841711">
        <ele>17.4</ele>
        <time>2020-06-10T18:45:20Z</time>
      </trkpt>
      <trkpt lat="51.226959933911" lon="4.474839001851">
        <ele>13</ele>
        <time>2020-06-10T18:45:37Z</time>
      </trkpt>
      <trkpt lat="51.22729948468" lon="4.475540231605">
        <ele>6.6</ele>
        <time>2020-06-10T18:45:54Z</time>
      </trkpt>
      <trkpt lat="51.227668707375" lon="4.476214220184">
        <ele>10.4</ele>
        <time>2020-06-10T18:46:10Z</time>
      </trkpt>
      <trkpt lat="51.228054442413" lon="4.476874630085">
        <ele>13</ele>
        <time>2020-06-10T18:46:26Z</time>
      </trkpt>
      <trkpt lat="51.228439925994" lon="4.477488688079">
        <ele>19.8</ele>
        <time>2020-06-10T18:46:43Z</time>
      </trkpt>
      <trkpt lat="51.228460964563" lon="4.477590779621">
        <ele>19</ele>
        <time>2020-06-10T18:46:46Z</time>
      </trkpt>
      <trkpt lat="51.228421569633" lon="4.478461659031">
        <ele>13.6</ele>
        <time>2020-06-10T18:47:05Z</time>
      </trkpt>
      <trkpt lat="51.228285028482" lon="4.479310913139">
        <ele>9.2</ele>
        <time>2020-06-10T18:47:25Z</time>
      </trkpt>
      <trkpt lat="51.22810749984" lon="4.48017165045">
        <ele>10.4</ele>
        <time>2020-06-10T18:47:42Z</time>
      </trkpt>
      <trkpt lat="51.227964336988" lon="4.481046385534">
        <ele>14.2</ele>
        <time>2020-06-10T18:47:59Z</time>
      </trkpt>
      <trkpt lat="51.227754789488" lon="4.481895472004">
        <ele>15</ele>
        <time>2020-06-10T18:48:18Z</time>
      </trkpt>
      <trkpt lat="51.227702318794" lon="4.482248349994">
        <ele>15.8</ele>
        <time>2020-06-10T18:48:29Z</time>
      </trkpt>
      <trkpt lat="51.227872890459" lon="4.48141803898">
        <ele>16.4</ele>
        <time>2020-06-10T18:48:46Z</time>
      </trkpt>
      <trkpt lat="51.22798428591" lon="4.480969774968">
        <ele>16.2</ele>
        <time>2020-06-10T18:48:57Z</time>
      </trkpt>
      <trkpt lat="51.228018819338" lon="4.480971367529">
        <ele>15.8</ele>
        <time>2020-06-10T18:48:59Z</time>
      </trkpt>
      <trkpt lat="51.228035918414" lon="4.480980587619">
        <ele>15.6</ele>
        <time>2020-06-10T18:49:02Z</time>
      </trkpt>
      <trkpt lat="51.228071038575" lon="4.48114478904">
        <ele>23.6</ele>
        <time>2020-06-10T18:56:09Z</time>
      </trkpt>
      <trkpt lat="51.228618544283" lon="4.481317288542">
        <ele>23.6</ele>
        <time>2020-06-10T18:56:40Z</time>
      </trkpt>
      <trkpt lat="51.229163367783" lon="4.481496242107">
        <ele>23.8</ele>
        <time>2020-06-10T18:57:01Z</time>
      </trkpt>
      <trkpt lat="51.229176946461" lon="4.481531362268">
        <ele>23.6</ele>
        <time>2020-06-10T18:57:02Z</time>
      </trkpt>
      <trkpt lat="51.2293178462" lon="4.482398218366">
        <ele>21.6</ele>
        <time>2020-06-10T18:57:20Z</time>
      </trkpt>
      <trkpt lat="51.229604171904" lon="4.483076397895">
        <ele>17</ele>
        <time>2020-06-10T18:57:43Z</time>
      </trkpt>
      <trkpt lat="51.23016777086" lon="4.483202461671">
        <ele>17.4</ele>
        <time>2020-06-10T18:58:01Z</time>
      </trkpt>
      <trkpt lat="51.230701949347" lon="4.483342187944">
        <ele>11.6</ele>
        <time>2020-06-10T18:58:18Z</time>
      </trkpt>
      <trkpt lat="51.231261524991" lon="4.483430365532">
        <ele>11.2</ele>
        <time>2020-06-10T18:58:35Z</time>
      </trkpt>
      <trkpt lat="51.231810204165" lon="4.483468167901">
        <ele>11.6</ele>
        <time>2020-06-10T18:58:52Z</time>
      </trkpt>
      <trkpt lat="51.232364415393" lon="4.483630609123">
        <ele>10.8</ele>
        <time>2020-06-10T18:59:10Z</time>
      </trkpt>
      <trkpt lat="51.232467428944" lon="4.483766814998">
        <ele>10.6</ele>
        <time>2020-06-10T18:59:15Z</time>
      </trkpt>
      <trkpt lat="51.232511769195" lon="4.483737729805">
        <ele>10.6</ele>
        <time>2020-06-10T18:59:20Z</time>
      </trkpt>
      <trkpt lat="51.232535154696" lon="4.483672602442">
        <ele>10.8</ele>
        <time>2020-06-10T18:59:23Z</time>
      </trkpt>
      <trkpt lat="51.232586368105" lon="4.483603954681">
        <ele>9.8</ele>
        <time>2020-06-10T18:59:26Z</time>
      </trkpt>
      <trkpt lat="51.232960117026" lon="4.484255479768">
        <ele>7.6</ele>
        <time>2020-06-10T18:59:42Z</time>
      </trkpt>
      <trkpt lat="51.23333696725" lon="4.484917146954">
        <ele>8.2</ele>
        <time>2020-06-10T18:59:56Z</time>
      </trkpt>
      <trkpt lat="51.233701160805" lon="4.485592392818">
        <ele>9</ele>
        <time>2020-06-10T19:00:10Z</time>
      </trkpt>
      <trkpt lat="51.234057475374" lon="4.486255904022">
        <ele>10</ele>
        <time>2020-06-10T19:00:27Z</time>
      </trkpt>
      <trkpt lat="51.234426195155" lon="4.48690902167">
        <ele>8.2</ele>
        <time>2020-06-10T19:00:47Z</time>
      </trkpt>
      <trkpt lat="51.234779073145" lon="4.487601115153">
        <ele>6.6</ele>
        <time>2020-06-10T19:01:01Z</time>
      </trkpt>
      <trkpt lat="51.235147373831" lon="4.488245012711">
        <ele>9.2</ele>
        <time>2020-06-10T19:01:14Z</time>
      </trkpt>
      <trkpt lat="51.235508382264" lon="4.488914726521">
        <ele>7.8</ele>
        <time>2020-06-10T19:01:28Z</time>
      </trkpt>
      <trkpt lat="51.235882634099" lon="4.489562312115">
        <ele>9.2</ele>
        <time>2020-06-10T19:01:43Z</time>
      </trkpt>
      <trkpt lat="51.236009703703" lon="4.489712180487">
        <ele>9.4</ele>
        <time>2020-06-10T19:01:48Z</time>
      </trkpt>
      <trkpt lat="51.236117327299" lon="4.488940878049">
        <ele>8.4</ele>
        <time>2020-06-10T19:02:04Z</time>
      </trkpt>
      <trkpt lat="51.236098468024" lon="4.488583557652">
        <ele>8</ele>
        <time>2020-06-10T19:02:12Z</time>
      </trkpt>
      <trkpt lat="51.236086314269" lon="4.48841944005">
        <ele>9.2</ele>
        <time>2020-06-10T19:02:47Z</time>
      </trkpt>
      <trkpt lat="51.236022108915" lon="4.483899584294">
        <ele>8</ele>
        <time>2020-06-10T19:04:25Z</time>
      </trkpt>
      <trkpt lat="51.236028898254" lon="4.483009342695">
        <ele>8</ele>
        <time>2020-06-10T19:04:42Z</time>
      </trkpt>
      <trkpt lat="51.236042560751" lon="4.482129494652">
        <ele>6</ele>
        <time>2020-06-10T19:04:57Z</time>
      </trkpt>
      <trkpt lat="51.23609125959" lon="4.481224249452">
        <ele>7</ele>
        <time>2020-06-10T19:05:13Z</time>
      </trkpt>
      <trkpt lat="51.236129900149" lon="4.480336606242">
        <ele>7</ele>
        <time>2020-06-10T19:05:27Z</time>
      </trkpt>
      <trkpt lat="51.236157057505" lon="4.479453237801">
        <ele>7.6</ele>
        <time>2020-06-10T19:05:40Z</time>
      </trkpt>
      <trkpt lat="51.236119255136" lon="4.478546567678">
        <ele>8.2</ele>
        <time>2020-06-10T19:05:54Z</time>
      </trkpt>
      <trkpt lat="51.235939966295" lon="4.477687003833">
        <ele>6.6</ele>
        <time>2020-06-10T19:06:08Z</time>
      </trkpt>
      <trkpt lat="51.235681887594" lon="4.476454361619">
        <ele>3.6</ele>
        <time>2020-06-10T19:06:29Z</time>
      </trkpt>
      <trkpt lat="51.235536880724" lon="4.475623380053">
        <ele>7.4</ele>
        <time>2020-06-10T19:06:44Z</time>
      </trkpt>
      <trkpt lat="51.235351808372" lon="4.47478544151">
        <ele>6.4</ele>
        <time>2020-06-10T19:06:58Z</time>
      </trkpt>
      <trkpt lat="51.235139494845" lon="4.473997207634">
        <ele>0.8</ele>
        <time>2020-06-10T19:07:13Z</time>
      </trkpt>
      <trkpt lat="51.235114349145" lon="4.473981449662">
        <ele>1.8</ele>
        <time>2020-06-10T19:07:14Z</time>
      </trkpt>
      <trkpt lat="51.234761135879" lon="4.473327074729">
        <ele>9.4</ele>
        <time>2020-06-10T19:07:30Z</time>
      </trkpt>
      <trkpt lat="51.234398283428" lon="4.472608494442">
        <ele>13.4</ele>
        <time>2020-06-10T19:07:44Z</time>
      </trkpt>
      <trkpt lat="51.234077591934" lon="4.471877006029">
        <ele>13.6</ele>
        <time>2020-06-10T19:07:59Z</time>
      </trkpt>
      <trkpt lat="51.233751452205" lon="4.471165801814">
        <ele>11.6</ele>
        <time>2020-06-10T19:08:15Z</time>
      </trkpt>
      <trkpt lat="51.233438555878" lon="4.470466499897">
        <ele>12</ele>
        <time>2020-06-10T19:08:30Z</time>
      </trkpt>
      <trkpt lat="51.233099675661" lon="4.469764934867">
        <ele>10.8</ele>
        <time>2020-06-10T19:08:45Z</time>
      </trkpt>
      <trkpt lat="51.23276867443" lon="4.469056580498">
        <ele>9.4</ele>
        <time>2020-06-10T19:09:00Z</time>
      </trkpt>
      <trkpt lat="51.232444378719" lon="4.468338000211">
        <ele>11.4</ele>
        <time>2020-06-10T19:09:15Z</time>
      </trkpt>
      <trkpt lat="51.232122513759" lon="4.467596369699">
        <ele>12.2</ele>
        <time>2020-06-10T19:09:31Z</time>
      </trkpt>
      <trkpt lat="51.231709956641" lon="4.467963496919">
        <ele>11.2</ele>
        <time>2020-06-10T19:09:49Z</time>
      </trkpt>
      <trkpt lat="51.231353306796" lon="4.468658943162">
        <ele>10.4</ele>
        <time>2020-06-10T19:10:05Z</time>
      </trkpt>
      <trkpt lat="51.230947958112" lon="4.469238970642">
        <ele>10</ele>
        <time>2020-06-10T19:10:20Z</time>
      </trkpt>
      <trkpt lat="51.230452420184" lon="4.469589585519">
        <ele>8.8</ele>
        <time>2020-06-10T19:10:35Z</time>
      </trkpt>
      <trkpt lat="51.22996073793" lon="4.469960149318">
        <ele>8.2</ele>
        <time>2020-06-10T19:10:50Z</time>
      </trkpt>
      <trkpt lat="51.22942764909" lon="4.470132145906">
        <ele>6.2</ele>
        <time>2020-06-10T19:11:06Z</time>
      </trkpt>
      <trkpt lat="51.22887528188" lon="4.470137342684">
        <ele>11.6</ele>
        <time>2020-06-10T19:11:20Z</time>
      </trkpt>
      <trkpt lat="51.228710912821" lon="4.470134911933">
        <ele>11.6</ele>
        <time>2020-06-10T19:11:26Z</time>
      </trkpt>
      <trkpt lat="51.22851066923" lon="4.470320487199">
        <ele>9.6</ele>
        <time>2020-06-10T19:11:36Z</time>
      </trkpt>
      <trkpt lat="51.228421904909" lon="4.470277068957">
        <ele>8.8</ele>
        <time>2020-06-10T19:11:41Z</time>
      </trkpt>
      <trkpt lat="51.228419055063" lon="4.470276063129">
        <ele>9.4</ele>
        <time>2020-06-10T19:11:46Z</time>
      </trkpt>
      <trkpt lat="51.228412098086" lon="4.47022233515">
        <ele>11.6</ele>
        <time>2020-06-10T19:12:12Z</time>
      </trkpt>
      <trkpt lat="51.228404889652" lon="4.470200709848">
        <ele>11.8</ele>
        <time>2020-06-10T19:12:13Z</time>
      </trkpt>
      <trkpt lat="51.228112193704" lon="4.469467880331">
        <ele>10.2</ele>
        <time>2020-06-10T19:12:29Z</time>
      </trkpt>
      <trkpt lat="51.22787867397" lon="4.468733961167">
        <ele>9.6</ele>
        <time>2020-06-10T19:12:47Z</time>
      </trkpt>
      <trkpt lat="51.227711538884" lon="4.467881857213">
        <ele>10.2</ele>
        <time>2020-06-10T19:13:02Z</time>
      </trkpt>
      <trkpt lat="51.227501069375" lon="4.467066046886">
        <ele>10.2</ele>
        <time>2020-06-10T19:13:18Z</time>
      </trkpt>
      <trkpt lat="51.227398642557" lon="4.46676396321">
        <ele>9.8</ele>
        <time>2020-06-10T19:13:25Z</time>
      </trkpt>
      <trkpt lat="51.227337873782" lon="4.466585596378">
        <ele>9.4</ele>
        <time>2020-06-10T19:13:31Z</time>
      </trkpt>
      <trkpt lat="51.226879383852" lon="4.466483756293">
        <ele>11</ele>
        <time>2020-06-10T19:13:49Z</time>
      </trkpt>
      <trkpt lat="51.226875528178" lon="4.466415359989">
        <ele>10.4</ele>
        <time>2020-06-10T19:13:51Z</time>
      </trkpt>
      <trkpt lat="51.226918359687" lon="4.466372696118">
        <ele>10.2</ele>
        <time>2020-06-10T19:13:53Z</time>
      </trkpt>
      <trkpt lat="51.227136708182" lon="4.466213020923">
        <ele>11.2</ele>
        <time>2020-06-10T19:14:04Z</time>
      </trkpt>
      <trkpt lat="51.227176941302" lon="4.466192233811">
        <ele>10.2</ele>
        <time>2020-06-10T19:14:07Z</time>
      </trkpt>
      <trkpt lat="51.227258916284" lon="4.466237076976">
        <ele>7.8</ele>
        <time>2020-06-10T19:14:14Z</time>
      </trkpt>
      <trkpt lat="51.227310213512" lon="4.466264653427">
        <ele>11</ele>
        <time>2020-06-10T19:14:37Z</time>
      </trkpt>
      <trkpt lat="51.227502494298" lon="4.466380491285">
        <ele>11.2</ele>
        <time>2020-06-10T19:14:47Z</time>
      </trkpt>
      <trkpt lat="51.227947321731" lon="4.466504040491">
        <ele>15.8</ele>
        <time>2020-06-10T19:15:05Z</time>
      </trkpt>
      <trkpt lat="51.228069446014" lon="4.466296923742">
        <ele>15.6</ele>
        <time>2020-06-10T19:15:09Z</time>
      </trkpt>
      <trkpt lat="51.228515614551" lon="4.465812282284">
        <ele>16.6</ele>
        <time>2020-06-10T19:15:23Z</time>
      </trkpt>
      <trkpt lat="51.228661878706" lon="4.465036788896">
        <ele>14.4</ele>
        <time>2020-06-10T19:15:36Z</time>
      </trkpt>
      <trkpt lat="51.228711583373" lon="4.46430387556">
        <ele>14.4</ele>
        <time>2020-06-10T19:15:49Z</time>
      </trkpt>
      <trkpt lat="51.228788696853" lon="4.464266240829">
        <ele>14.4</ele>
        <time>2020-06-10T19:15:51Z</time>
      </trkpt>
      <trkpt lat="51.229336873113" lon="4.46422760027">
        <ele>13.2</ele>
        <time>2020-06-10T19:16:05Z</time>
      </trkpt>
      <trkpt lat="51.229890832884" lon="4.464154426283">
        <ele>15.6</ele>
        <time>2020-06-10T19:16:20Z</time>
      </trkpt>
      <trkpt lat="51.2303655837" lon="4.463745305744">
        <ele>8.2</ele>
        <time>2020-06-10T19:16:35Z</time>
      </trkpt>
      <trkpt lat="51.230371953944" lon="4.46370121695">
        <ele>8</ele>
        <time>2020-06-10T19:16:36Z</time>
      </trkpt>
      <trkpt lat="51.230233904051" lon="4.462841736924">
        <ele>9.6</ele>
        <time>2020-06-10T19:16:52Z</time>
      </trkpt>
      <trkpt lat="51.230011364606" lon="4.462041852207">
        <ele>9.8</ele>
        <time>2020-06-10T19:17:06Z</time>
      </trkpt>
      <trkpt lat="51.229786645867" lon="4.461235429608">
        <ele>10.6</ele>
        <time>2020-06-10T19:17:21Z</time>
      </trkpt>
      <trkpt lat="51.229322120969" lon="4.460930579905">
        <ele>9</ele>
        <time>2020-06-10T19:17:38Z</time>
      </trkpt>
      <trkpt lat="51.228756426538" lon="4.4610567275">
        <ele>11.8</ele>
        <time>2020-06-10T19:17:53Z</time>
      </trkpt>
      <trkpt lat="51.228378151391" lon="4.461096709163">
        <ele>24</ele>
        <time>2020-06-10T19:18:02Z</time>
      </trkpt>
      <trkpt lat="51.228273126184" lon="4.46096704117">
        <ele>25</ele>
        <time>2020-06-10T19:18:05Z</time>
      </trkpt>
      <trkpt lat="51.228084952529" lon="4.460423977869">
        <ele>16</ele>
        <time>2020-06-10T19:18:15Z</time>
      </trkpt>
      <trkpt lat="51.22812342545" lon="4.460331441693">
        <ele>14.6</ele>
        <time>2020-06-10T19:18:17Z</time>
      </trkpt>
      <trkpt lat="51.228420396167" lon="4.459712606016">
        <ele>6.8</ele>
        <time>2020-06-10T19:18:30Z</time>
      </trkpt>
      <trkpt lat="51.228618879559" lon="4.458910374367">
        <ele>5.4</ele>
        <time>2020-06-10T19:18:47Z</time>
      </trkpt>
      <trkpt lat="51.228537575129" lon="4.458014852171">
        <ele>7.8</ele>
        <time>2020-06-10T19:19:02Z</time>
      </trkpt>
      <trkpt lat="51.228478734191" lon="4.457259978257">
        <ele>11</ele>
        <time>2020-06-10T19:19:16Z</time>
      </trkpt>
      <trkpt lat="51.22903202341" lon="4.457070547317">
        <ele>8.4</ele>
        <time>2020-06-10T19:19:34Z</time>
      </trkpt>
      <trkpt lat="51.229588497751" lon="4.456890504105">
        <ele>7</ele>
        <time>2020-06-10T19:19:50Z</time>
      </trkpt>
      <trkpt lat="51.230123849704" lon="4.456706772857">
        <ele>7.8</ele>
        <time>2020-06-10T19:20:07Z</time>
      </trkpt>
      <trkpt lat="51.230670349584" lon="4.456548857861">
        <ele>7.6</ele>
        <time>2020-06-10T19:20:23Z</time>
      </trkpt>
      <trkpt lat="51.231176783982" lon="4.456267477478">
        <ele>8</ele>
        <time>2020-06-10T19:20:39Z</time>
      </trkpt>
      <trkpt lat="51.23119287723" lon="4.456210815834">
        <ele>7.6</ele>
        <time>2020-06-10T19:20:41Z</time>
      </trkpt>
      <trkpt lat="51.231038398813" lon="4.455961202852">
        <ele>6</ele>
        <time>2020-06-10T19:20:49Z</time>
      </trkpt>
      <trkpt lat="51.231047786541" lon="4.455804880417">
        <ele>5.8</ele>
        <time>2020-06-10T19:20:54Z</time>
      </trkpt>
      <trkpt lat="51.231220202224" lon="4.455834636162">
        <ele>4.8</ele>
        <time>2020-06-10T19:21:01Z</time>
      </trkpt>
      <trkpt lat="51.231081481779" lon="4.455032572151">
        <ele>0.4</ele>
        <time>2020-06-10T19:21:18Z</time>
      </trkpt>
      <trkpt lat="51.230963129351" lon="4.45416261475">
        <ele>5</ele>
        <time>2020-06-10T19:21:36Z</time>
      </trkpt>
      <trkpt lat="51.230806639278" lon="4.453327526053">
        <ele>4.8</ele>
        <time>2020-06-10T19:21:53Z</time>
      </trkpt>
      <trkpt lat="51.230747211607" lon="4.452467207837">
        <ele>10</ele>
        <time>2020-06-10T19:22:13Z</time>
      </trkpt>
      <trkpt lat="51.230614274673" lon="4.451597250436">
        <ele>17.6</ele>
        <time>2020-06-10T19:22:29Z</time>
      </trkpt>
      <trkpt lat="51.230446301397" lon="4.450753863658">
        <ele>14.6</ele>
        <time>2020-06-10T19:22:46Z</time>
      </trkpt>
      <trkpt lat="51.229911368539" lon="4.450835503364">
        <ele>5.8</ele>
        <time>2020-06-10T19:23:04Z</time>
      </trkpt>
      <trkpt lat="51.229719758305" lon="4.450890404809">
        <ele>6.4</ele>
        <time>2020-06-10T19:23:10Z</time>
      </trkpt>
      <trkpt lat="51.229544828052" lon="4.450069146247">
        <ele>7</ele>
        <time>2020-06-10T19:23:26Z</time>
      </trkpt>
      <trkpt lat="51.229511216633" lon="4.449759183585">
        <ele>8.4</ele>
        <time>2020-06-10T19:23:31Z</time>
      </trkpt>
      <trkpt lat="51.229365120116" lon="4.44888201775">
        <ele>12</ele>
        <time>2020-06-10T19:23:46Z</time>
      </trkpt>
      <trkpt lat="51.229095474393" lon="4.448449260253">
        <ele>13.2</ele>
        <time>2020-06-10T19:24:09Z</time>
      </trkpt>
      <trkpt lat="51.229119698084" lon="4.448467281338">
        <ele>12.6</ele>
        <time>2020-06-10T19:24:20Z</time>
      </trkpt>
      <trkpt lat="51.229036046722" lon="4.448445404579">
        <ele>5</ele>
        <time>2020-06-10T19:24:22Z</time>
      </trkpt>
      <trkpt lat="51.228670092968" lon="4.44910581448">
        <ele>0</ele>
        <time>2020-06-10T19:24:45Z</time>
      </trkpt>
      <trkpt lat="51.228568839616" lon="4.4491711933">
        <ele>0</ele>
        <time>2020-06-10T19:24:51Z</time>
      </trkpt>
      <trkpt lat="51.228513099981" lon="4.449230453333">
        <ele>0</ele>
        <time>2020-06-10T19:25:03Z</time>
      </trkpt>
    </trkseg>
  </trk>
</gpx>